createdAt,value
2022-10-13T00:12:10.520Z,968.39
2022-10-13T00:17:12.022Z,968.39
2022-10-13T00:23:01.661Z,968.34
2022-10-13T00:37:17.546Z,968.45
2022-10-13T00:42:19.232Z,968.48
2022-10-13T00:47:20.200Z,968.44
2022-10-13T00:52:21.695Z,968.42
2022-10-13T00:57:23.570Z,968.44
2022-10-13T01:02:25.646Z,968.36
2022-10-13T01:07:27.659Z,968.43
2022-10-13T01:12:29.829Z,968.5
2022-10-13T01:17:31.775Z,968.49
2022-10-13T01:22:33.573Z,968.41
2022-10-13T01:27:35.134Z,968.4
2022-10-13T01:32:37.161Z,968.47
2022-10-13T01:37:38.709Z,968.43
2022-10-13T01:42:40.534Z,968.41
2022-10-13T01:47:42.122Z,968.36
2022-10-13T01:52:43.795Z,968.41
2022-10-13T01:57:45.323Z,968.41
2022-10-13T02:02:47.199Z,968.4
2022-10-13T02:07:48.966Z,968.38
2022-10-13T02:12:51.090Z,968.43
2022-10-13T02:17:52.682Z,968.49
2022-10-13T02:22:54.409Z,968.45
2022-10-13T02:27:56.335Z,968.39
2022-10-13T02:32:57.935Z,968.41
2022-10-13T02:37:59.694Z,968.34
2022-10-13T02:43:00.089Z,968.33
2022-10-13T02:48:10.861Z,968.24
2022-10-13T02:53:03.962Z,968.31
2022-10-13T02:58:13.678Z,968.31
2022-10-13T03:03:15.437Z,968.23
2022-10-13T03:08:08.938Z,968.19
2022-10-13T03:13:18.391Z,968.17
2022-10-13T03:18:12.091Z,968.17
2022-10-13T03:23:13.816Z,968.12
2022-10-13T03:28:25.367Z,968.16
2022-10-13T03:33:16.792Z,968.2
2022-10-13T03:38:27.987Z,968.15
2022-10-13T03:43:20.174Z,968.22
2022-10-13T03:48:29.714Z,968.26
2022-10-13T03:53:22.848Z,968.33
2022-10-13T03:58:24.730Z,968.37
2022-10-13T04:03:26.694Z,968.31
2022-10-13T04:08:28.528Z,968.27
2022-10-13T04:13:29.882Z,968.3
2022-10-13T04:18:44.604Z,968.3
2022-10-13T04:23:33.202Z,968.33
2022-10-13T04:28:34.774Z,968.34
2022-10-13T04:33:36.476Z,968.33
2022-10-13T04:38:38.093Z,968.36
2022-10-13T04:43:39.715Z,968.38
2022-10-13T04:48:41.107Z,968.34
2022-10-13T04:53:43.042Z,968.33
2022-10-13T04:58:55.167Z,968.23
2022-10-13T05:03:46.910Z,968.22
2022-10-13T05:08:48.637Z,968.2
2022-10-13T05:13:50.319Z,968.15
2022-10-13T05:18:51.669Z,968.15
2022-10-13T05:23:53.557Z,968.16
2022-10-13T05:28:55.085Z,968.17
2022-10-13T05:33:56.176Z,968.17
2022-10-13T05:38:58.158Z,968.16
2022-10-13T05:43:59.929Z,968.15
2022-10-13T05:49:02.044Z,968.12
2022-10-13T05:54:03.970Z,968.16
2022-10-13T05:59:15.787Z,968.14
2022-10-13T06:04:07.277Z,968.13
2022-10-13T06:09:08.960Z,968.13
2022-10-13T06:14:10.757Z,968.14
2022-10-13T06:19:12.910Z,968.13
2022-10-13T06:24:15.092Z,968.11
2022-10-13T06:29:27.060Z,968.14
2022-10-13T06:34:18.949Z,968.16
2022-10-13T06:39:21.049Z,968.17
2022-10-13T06:44:22.993Z,968.19
2022-10-13T06:49:34.863Z,968.14
2022-10-13T06:54:26.760Z,968.19
2022-10-13T06:59:28.589Z,968.18
2022-10-13T07:04:30.723Z,968.17
2022-10-13T07:09:32.206Z,968.12
2022-10-13T07:14:33.985Z,968.16
2022-10-13T07:19:45.576Z,968.11
2022-10-13T07:24:37.087Z,968.08
2022-10-13T07:29:49.321Z,968.07
2022-10-13T07:34:41.631Z,968.09
2022-10-13T07:44:45.252Z,968.01
2022-10-13T07:49:46.785Z,968
2022-10-13T07:54:48.641Z,967.92
2022-10-13T07:59:50.008Z,967.9
2022-10-13T08:04:52.088Z,967.94
2022-10-13T08:09:53.871Z,967.87
2022-10-13T08:14:55.770Z,967.78
2022-10-13T08:19:57.674Z,967.83
2022-10-13T08:24:59.735Z,967.9
2022-10-13T08:30:01.754Z,967.93
2022-10-13T08:35:04.284Z,967.91
2022-10-13T08:40:04.966Z,967.85
2022-10-13T08:45:40.143Z,967.82
2022-10-13T08:50:09.116Z,967.75
2022-10-13T08:55:10.876Z,967.68
2022-10-13T09:00:12.412Z,967.59
2022-10-13T09:10:16.469Z,967.6
2022-10-13T09:20:19.781Z,967.53
2022-10-13T09:25:21.912Z,967.54
2022-10-13T09:30:24.078Z,967.49
2022-10-13T09:35:26.082Z,967.44
2022-10-13T09:41:15.668Z,967.45
2022-10-13T09:45:29.825Z,967.47
2022-10-13T09:50:40.976Z,967.39
2022-10-13T09:55:42.632Z,967.4
2022-10-13T10:00:44.341Z,967.38
2022-10-13T10:05:46.377Z,967.39
2022-10-13T10:10:47.951Z,967.38
2022-10-13T10:15:49.957Z,967.29
2022-10-13T10:20:51.550Z,967.34
2022-10-13T10:25:53.487Z,967.31
2022-10-13T10:30:55.133Z,967.37
2022-10-13T10:35:57.163Z,967.37
2022-10-13T10:40:59.227Z,967.31
2022-10-13T10:46:00.539Z,967.2
2022-10-13T10:51:02.337Z,967.11
2022-10-13T10:56:04.292Z,967.04
2022-10-13T11:01:06.047Z,966.92
2022-10-13T11:06:07.922Z,966.91
2022-10-13T11:11:09.544Z,966.84
2022-10-13T11:16:11.705Z,966.8
2022-10-13T11:21:13.135Z,966.73
2022-10-13T11:26:14.923Z,966.62
2022-10-13T11:31:16.304Z,966.62
2022-10-13T11:36:18.461Z,966.6
2022-10-13T11:41:19.698Z,966.5
2022-10-13T11:46:21.199Z,966.55
2022-10-13T11:51:23.431Z,966.52
2022-10-13T11:56:24.650Z,966.36
2022-10-13T12:01:26.580Z,966.25
2022-10-13T12:06:28.421Z,966.17
2022-10-13T12:11:29.733Z,966.12
2022-10-13T12:16:31.148Z,966.08
2022-10-13T12:21:32.865Z,966.02
2022-10-13T12:26:34.825Z,966.03
2022-10-13T12:31:36.735Z,966
2022-10-13T12:36:38.322Z,965.92
2022-10-13T12:41:39.562Z,965.98
2022-10-13T12:46:41.253Z,965.96
2022-10-13T12:51:43.172Z,965.88
2022-10-13T12:56:44.473Z,965.81
2022-10-13T13:01:45.885Z,965.78
2022-10-13T13:06:48.019Z,965.79
2022-10-13T13:36:56.942Z,965.52
2022-10-13T13:52:01.748Z,965.41
2022-10-13T14:22:11.486Z,965.34
2022-10-13T14:47:19.875Z,965.27
2022-10-13T14:52:21.561Z,965.25
2022-10-13T14:57:23.309Z,965.23
2022-10-13T15:02:24.907Z,965.19
2022-10-13T15:07:26.065Z,965.18
2022-10-13T15:17:29.153Z,965.16
2022-10-13T15:22:31.146Z,965.11
2022-10-13T15:27:33.727Z,965.06
2022-10-13T15:32:34.476Z,965.09
2022-10-13T15:37:36.527Z,965.13
2022-10-13T15:42:38.023Z,965.13
2022-10-13T15:47:39.367Z,965.15
2022-10-13T15:52:41.320Z,965.15
2022-10-13T15:57:42.412Z,965.15
2022-10-13T16:02:44.511Z,965.12
2022-10-13T16:07:46.499Z,965.05
2022-10-13T16:12:49.708Z,965.01
2022-10-13T16:17:50.135Z,964.99
2022-10-13T16:22:51.771Z,965.02
2022-10-13T16:27:52.995Z,965.04
2022-10-13T16:32:55.066Z,965.06
2022-10-13T16:37:57.087Z,965.16
2022-10-13T16:42:58.519Z,965.2
2022-10-13T16:47:59.988Z,965.21
2022-10-13T16:53:01.354Z,965.2
2022-10-13T16:58:02.713Z,965.16
2022-10-13T17:03:04.603Z,965.22
2022-10-13T17:08:05.974Z,965.2
2022-10-13T17:13:55.579Z,965.18
2022-10-13T17:19:45.207Z,965.2
2022-10-13T17:23:11.780Z,965.25
2022-10-13T17:28:13.681Z,965.23
2022-10-13T17:33:15.334Z,965.27
2022-10-13T17:38:17.395Z,965.26
2022-10-13T17:43:19.035Z,965.29
2022-10-13T17:48:23.156Z,965.27
2022-10-13T17:53:23.275Z,965.29
2022-10-13T17:58:24.518Z,965.24
2022-10-13T18:03:26.305Z,965.25
2022-10-13T18:08:28.141Z,965.23
2022-10-13T18:13:30.205Z,965.21
2022-10-13T18:18:31.611Z,965.14
2022-10-13T18:23:33.169Z,965.14
2022-10-13T18:28:35.287Z,965.2
2022-10-13T18:33:36.836Z,965.16
2022-10-13T18:38:38.785Z,965.12
2022-10-13T18:43:40.667Z,965.11
2022-10-13T18:48:42.284Z,965.06
2022-10-13T18:53:44.077Z,965.07
2022-10-13T18:58:46.229Z,965
2022-10-13T19:03:47.628Z,964.99
2022-10-13T19:08:49.570Z,964.93
2022-10-13T19:13:51.221Z,964.89
2022-10-13T19:18:53.090Z,964.8
2022-10-13T19:23:55.156Z,964.81
2022-10-13T19:33:57.655Z,964.88
2022-10-13T19:38:59.566Z,964.83
2022-10-13T19:44:01.253Z,964.79
2022-10-13T19:49:03.160Z,964.7
2022-10-13T19:54:05.298Z,964.61
2022-10-13T19:59:07.400Z,964.77
2022-10-13T20:04:09.353Z,964.73
2022-10-13T20:09:11.029Z,964.81
2022-10-13T20:14:13.112Z,964.76
2022-10-13T20:19:14.719Z,964.82
2022-10-13T20:24:16.313Z,964.8
2022-10-13T20:29:17.512Z,964.82
2022-10-13T20:34:20.225Z,964.76
2022-10-13T20:40:09.928Z,964.75
2022-10-13T20:44:22.558Z,964.82
2022-10-13T20:49:24.054Z,964.88
2022-10-13T20:54:25.770Z,964.88
2022-10-13T20:59:27.599Z,964.84
2022-10-13T21:04:28.703Z,964.83
2022-10-13T21:09:30.187Z,964.82
2022-10-13T21:14:32.224Z,964.82
2022-10-13T21:19:33.700Z,964.84
2022-10-13T21:24:35.058Z,964.84
2022-10-13T21:29:36.732Z,964.84
2022-10-13T21:34:37.855Z,964.79
2022-10-13T21:39:39.794Z,964.78
2022-10-13T21:44:41.956Z,964.83
2022-10-13T21:49:43.938Z,964.9
2022-10-13T21:54:46.153Z,964.94
2022-10-13T21:59:47.389Z,965.06
2022-10-13T22:14:53.526Z,965.13
2022-10-13T22:19:55.638Z,965.1
2022-10-13T22:24:57.627Z,965.24
2022-10-13T22:29:59.660Z,965.28
2022-10-13T22:35:01.187Z,965.33
2022-10-13T22:40:03.216Z,965.33
2022-10-13T22:45:04.883Z,965.31
2022-10-13T22:50:06.548Z,965.28
2022-10-13T22:55:08.374Z,965.27
2022-10-13T23:00:09.803Z,965.24
2022-10-13T23:05:11.028Z,965.23
2022-10-13T23:10:13.127Z,965.18
2022-10-13T23:15:14.478Z,965.15
2022-10-13T23:20:16.201Z,965.09
2022-10-13T23:25:18.162Z,965.05
2022-10-13T23:30:20.200Z,965.02
2022-10-13T23:35:22.015Z,965.02
2022-10-13T23:40:23.236Z,964.99
2022-10-13T23:45:23.816Z,964.94
2022-10-13T23:50:25.587Z,964.92
2022-10-13T23:55:27.923Z,964.92
